sensor_id;sensor_type;location;lat;lon;timestamp;pressure;altitude;pressure_sealevel;temperature;humidity
24160;BME280;62385;41.594;23.808;2024-02-21T00:01:45;96152.59;;;4.83;71.08
24160;BME280;62385;41.594;23.808;2024-02-21T00:04:11;96151.50;;;4.86;70.52
24160;BME280;62385;41.594;23.808;2024-02-21T00:06:36;96152.84;;;4.91;70.12
24160;BME280;62385;41.594;23.808;2024-02-21T00:09:02;96147.44;;;4.93;70.28
24160;BME280;62385;41.594;23.808;2024-02-21T00:11:28;96145.28;;;4.98;70.33
24160;BME280;62385;41.594;23.808;2024-02-21T00:13:54;96151.03;;;4.81;71.53
24160;BME280;62385;41.594;23.808;2024-02-21T00:16:22;96148.06;;;4.74;71.04
24160;BME280;62385;41.594;23.808;2024-02-21T00:18:48;96139.56;;;4.71;71.43
24160;BME280;62385;41.594;23.808;2024-02-21T00:21:14;96124.16;;;4.66;71.38
24160;BME280;62385;41.594;23.808;2024-02-21T00:23:44;96148.16;;;4.50;71.59
24160;BME280;62385;41.594;23.808;2024-02-21T00:26:12;96142.84;;;4.17;74.35
24160;BME280;62385;41.594;23.808;2024-02-21T00:28:38;96134.56;;;4.10;73.88
24160;BME280;62385;41.594;23.808;2024-02-21T00:31:04;96138.91;;;4.23;74.57
24160;BME280;62385;41.594;23.808;2024-02-21T00:33:29;96142.59;;;4.20;74.50
24160;BME280;62385;41.594;23.808;2024-02-21T00:35:54;96138.84;;;4.00;75.25
24160;BME280;62385;41.594;23.808;2024-02-21T00:38:20;96147.09;;;4.07;75.30
24160;BME280;62385;41.594;23.808;2024-02-21T00:40:46;96139.78;;;3.88;75.63
24160;BME280;62385;41.594;23.808;2024-02-21T00:43:11;96127.94;;;3.94;75.73
24160;BME280;62385;41.594;23.808;2024-02-21T00:45:37;96138.63;;;4.14;74.74
24160;BME280;62385;41.594;23.808;2024-02-21T00:48:02;96136.94;;;4.02;75.13
24160;BME280;62385;41.594;23.808;2024-02-21T00:50:28;96132.94;;;4.21;74.67
24160;BME280;62385;41.594;23.808;2024-02-21T00:52:54;96134.63;;;4.33;74.68
24160;BME280;62385;41.594;23.808;2024-02-21T00:55:19;96127.78;;;4.19;74.54
24160;BME280;62385;41.594;23.808;2024-02-21T00:57:45;96129.13;;;4.36;74.21
24160;BME280;62385;41.594;23.808;2024-02-21T01:00:11;96125.09;;;4.54;73.98
24160;BME280;62385;41.594;23.808;2024-02-21T01:02:36;96113.88;;;4.74;73.62
24160;BME280;62385;41.594;23.808;2024-02-21T01:05:02;96122.81;;;5.16;72.12
24160;BME280;62385;41.594;23.808;2024-02-21T01:07:28;96119.56;;;5.24;72.30
24160;BME280;62385;41.594;23.808;2024-02-21T01:09:53;96135.78;;;5.40;72.09
24160;BME280;62385;41.594;23.808;2024-02-21T01:12:19;96123.97;;;5.23;72.35
24160;BME280;62385;41.594;23.808;2024-02-21T01:14:44;96124.19;;;5.42;72.06
24160;BME280;62385;41.594;23.808;2024-02-21T01:17:12;96133.31;;;5.59;72.28
24160;BME280;62385;41.594;23.808;2024-02-21T01:19:37;96144.38;;;5.53;73.62
24160;BME280;62385;41.594;23.808;2024-02-21T01:22:03;96126.00;;;5.20;74.42
24160;BME280;62385;41.594;23.808;2024-02-21T01:24:29;96137.41;;;4.87;73.68
24160;BME280;62385;41.594;23.808;2024-02-21T01:26:55;96141.25;;;4.83;74.50
24160;BME280;62385;41.594;23.808;2024-02-21T01:29:20;96150.34;;;4.79;74.46
24160;BME280;62385;41.594;23.808;2024-02-21T01:31:46;96128.56;;;4.77;73.99
24160;BME280;62385;41.594;23.808;2024-02-21T01:34:13;96140.72;;;4.33;74.87
24160;BME280;62385;41.594;23.808;2024-02-21T01:36:38;96135.06;;;4.27;75.27
24160;BME280;62385;41.594;23.808;2024-02-21T01:39:04;96137.66;;;4.50;74.73
24160;BME280;62385;41.594;23.808;2024-02-21T01:41:30;96136.16;;;4.35;75.10
24160;BME280;62385;41.594;23.808;2024-02-21T01:43:56;96138.72;;;4.59;74.64
24160;BME280;62385;41.594;23.808;2024-02-21T01:46:22;96134.31;;;4.71;74.27
24160;BME280;62385;41.594;23.808;2024-02-21T01:48:48;96120.19;;;4.38;75.67
24160;BME280;62385;41.594;23.808;2024-02-21T01:51:15;96123.13;;;4.23;75.98
24160;BME280;62385;41.594;23.808;2024-02-21T01:53:43;96123.03;;;4.35;75.78
24160;BME280;62385;41.594;23.808;2024-02-21T01:56:09;96107.75;;;4.18;77.09
24160;BME280;62385;41.594;23.808;2024-02-21T01:58:36;96119.22;;;4.39;76.48
24160;BME280;62385;41.594;23.808;2024-02-21T02:01:03;96112.31;;;4.38;75.86
24160;BME280;62385;41.594;23.808;2024-02-21T02:03:28;96103.69;;;4.47;76.11
24160;BME280;62385;41.594;23.808;2024-02-21T02:05:55;96114.59;;;4.54;75.07
24160;BME280;62385;41.594;23.808;2024-02-21T02:08:21;96094.97;;;4.58;75.29
24160;BME280;62385;41.594;23.808;2024-02-21T02:10:49;96113.44;;;4.23;76.42
24160;BME280;62385;41.594;23.808;2024-02-21T02:13:15;96114.69;;;4.41;76.51
24160;BME280;62385;41.594;23.808;2024-02-21T02:15:41;96105.97;;;4.41;76.51
24160;BME280;62385;41.594;23.808;2024-02-21T02:18:07;96101.53;;;4.30;76.11
24160;BME280;62385;41.594;23.808;2024-02-21T02:20:33;96078.69;;;4.31;75.26
24160;BME280;62385;41.594;23.808;2024-02-21T02:22:59;96097.38;;;4.61;75.50
24160;BME280;62385;41.594;23.808;2024-02-21T02:25:26;96112.16;;;4.29;76.27
24160;BME280;62385;41.594;23.808;2024-02-21T02:27:51;96108.84;;;4.49;75.75
24160;BME280;62385;41.594;23.808;2024-02-21T02:30:17;96105.97;;;4.63;75.76
24160;BME280;62385;41.594;23.808;2024-02-21T02:32:45;96086.97;;;4.59;75.62
24160;BME280;62385;41.594;23.808;2024-02-21T02:35:11;96062.09;;;4.75;74.26
24160;BME280;62385;41.594;23.808;2024-02-21T02:37:36;96094.13;;;4.91;74.01
24160;BME280;62385;41.594;23.808;2024-02-21T02:40:08;96094.72;;;4.94;74.68
24160;BME280;62385;41.594;23.808;2024-02-21T02:42:33;96090.53;;;4.92;74.45
24160;BME280;62385;41.594;23.808;2024-02-21T02:44:59;96095.06;;;5.12;73.40
24160;BME280;62385;41.594;23.808;2024-02-21T02:47:24;96108.19;;;5.23;73.85
24160;BME280;62385;41.594;23.808;2024-02-21T02:49:50;96103.28;;;5.30;73.51
24160;BME280;62385;41.594;23.808;2024-02-21T02:52:19;96102.53;;;5.28;73.51
24160;BME280;62385;41.594;23.808;2024-02-21T02:54:45;96102.47;;;5.07;73.78
24160;BME280;62385;41.594;23.808;2024-02-21T02:57:10;96101.28;;;4.89;74.73
24160;BME280;62385;41.594;23.808;2024-02-21T02:59:36;96109.66;;;4.94;74.51
24160;BME280;62385;41.594;23.808;2024-02-21T03:02:01;96099.16;;;4.72;73.99
24160;BME280;62385;41.594;23.808;2024-02-21T03:04:27;96111.09;;;4.87;72.62
24160;BME280;62385;41.594;23.808;2024-02-21T03:06:53;96098.66;;;4.89;72.01
24160;BME280;62385;41.594;23.808;2024-02-21T03:09:18;96118.91;;;4.88;71.75
24160;BME280;62385;41.594;23.808;2024-02-21T03:11:44;96114.59;;;4.87;71.42
24160;BME280;62385;41.594;23.808;2024-02-21T03:14:10;96111.09;;;4.87;70.73
24160;BME280;62385;41.594;23.808;2024-02-21T03:16:36;96113.97;;;4.95;70.15
24160;BME280;62385;41.594;23.808;2024-02-21T03:19:01;96101.31;;;4.78;70.50
24160;BME280;62385;41.594;23.808;2024-02-21T03:21:27;96101.66;;;4.73;70.75
24160;BME280;62385;41.594;23.808;2024-02-21T03:23:52;96103.94;;;5.00;70.21
24160;BME280;62385;41.594;23.808;2024-02-21T03:26:18;96093.66;;;4.86;70.41
24160;BME280;62385;41.594;23.808;2024-02-21T03:28:44;96109.66;;;5.05;71.02
24160;BME280;62385;41.594;23.808;2024-02-21T03:31:13;96084.81;;;4.87;70.90
24160;BME280;62385;41.594;23.808;2024-02-21T03:33:42;96106.06;;;4.95;71.03
24160;BME280;62385;41.594;23.808;2024-02-21T03:36:15;96100.81;;;4.95;71.27
24160;BME280;62385;41.594;23.808;2024-02-21T03:38:43;96101.91;;;4.92;71.29
24160;BME280;62385;41.594;23.808;2024-02-21T03:41:08;96090.66;;;4.90;70.36
24160;BME280;62385;41.594;23.808;2024-02-21T03:43:34;96090.03;;;4.98;71.01
24160;BME280;62385;41.594;23.808;2024-02-21T03:45:59;96099.38;;;5.02;70.96
24160;BME280;62385;41.594;23.808;2024-02-21T03:48:26;96101.88;;;5.03;71.19
24160;BME280;62385;41.594;23.808;2024-02-21T03:50:52;96103.44;;;4.73;72.90
24160;BME280;62385;41.594;23.808;2024-02-21T03:53:17;96097.47;;;4.82;73.74
24160;BME280;62385;41.594;23.808;2024-02-21T03:55:43;96102.00;;;4.91;73.06
24160;BME280;62385;41.594;23.808;2024-02-21T03:58:08;96097.56;;;5.02;72.37
24160;BME280;62385;41.594;23.808;2024-02-21T04:00:34;96103.19;;;4.98;73.13
24160;BME280;62385;41.594;23.808;2024-02-21T04:02:59;96093.06;;;4.82;73.00
24160;BME280;62385;41.594;23.808;2024-02-21T04:05:25;96098.19;;;4.73;73.55
24160;BME280;62385;41.594;23.808;2024-02-21T04:07:50;96106.94;;;4.51;74.28
24160;BME280;62385;41.594;23.808;2024-02-21T04:10:17;96103.81;;;4.46;75.69
24160;BME280;62385;41.594;23.808;2024-02-21T04:12:42;96089.38;;;4.62;74.50
24160;BME280;62385;41.594;23.808;2024-02-21T04:15:08;96103.59;;;4.71;74.25
24160;BME280;62385;41.594;23.808;2024-02-21T04:17:34;96093.19;;;4.70;74.26
24160;BME280;62385;41.594;23.808;2024-02-21T04:20:04;96085.66;;;4.65;74.04
24160;BME280;62385;41.594;23.808;2024-02-21T04:22:34;96090.81;;;4.67;74.33
24160;BME280;62385;41.594;23.808;2024-02-21T04:25:00;96084.69;;;4.66;73.85
24160;BME280;62385;41.594;23.808;2024-02-21T04:27:26;96101.19;;;4.46;74.80
24160;BME280;62385;41.594;23.808;2024-02-21T04:29:52;96100.69;;;4.52;74.95
24160;BME280;62385;41.594;23.808;2024-02-21T04:32:18;96101.06;;;4.25;75.60
24160;BME280;62385;41.594;23.808;2024-02-21T04:34:44;96101.53;;;4.30;76.35
24160;BME280;62385;41.594;23.808;2024-02-21T04:37:09;96099.72;;;4.31;74.99
24160;BME280;62385;41.594;23.808;2024-02-21T04:39:35;96096.59;;;4.03;76.41
24160;BME280;62385;41.594;23.808;2024-02-21T04:42:01;96102.91;;;4.01;76.20
24160;BME280;62385;41.594;23.808;2024-02-21T04:44:26;96102.19;;;3.99;76.02
24160;BME280;62385;41.594;23.808;2024-02-21T04:46:52;96106.13;;;3.93;76.30
24160;BME280;62385;41.594;23.808;2024-02-21T04:49:17;96114.63;;;4.08;75.78
24160;BME280;62385;41.594;23.808;2024-02-21T04:51:43;96108.44;;;3.74;76.24
24160;BME280;62385;41.594;23.808;2024-02-21T04:54:08;96114.19;;;3.79;76.81
24160;BME280;62385;41.594;23.808;2024-02-21T04:56:34;96116.47;;;3.84;75.81
24160;BME280;62385;41.594;23.808;2024-02-21T04:59:00;96115.47;;;3.73;76.53
24160;BME280;62385;41.594;23.808;2024-02-21T05:01:25;96117.78;;;3.54;77.12
24160;BME280;62385;41.594;23.808;2024-02-21T05:03:51;96125.16;;;3.25;77.17
24160;BME280;62385;41.594;23.808;2024-02-21T05:06:16;96105.97;;;3.25;77.15
24160;BME280;62385;41.594;23.808;2024-02-21T05:08:42;96130.59;;;3.59;76.27
24160;BME280;62385;41.594;23.808;2024-02-21T05:11:07;96128.34;;;3.18;76.93
24160;BME280;62385;41.594;23.808;2024-02-21T05:13:33;96125.25;;;3.00;77.25
24160;BME280;62385;41.594;23.808;2024-02-21T05:15:58;96121.66;;;2.65;77.91
24160;BME280;62385;41.594;23.808;2024-02-21T05:18:27;96135.38;;;2.68;77.84
24160;BME280;62385;41.594;23.808;2024-02-21T05:20:53;96135.38;;;2.68;78.53
24160;BME280;62385;41.594;23.808;2024-02-21T05:23:19;96132.59;;;2.95;76.85
24160;BME280;62385;41.594;23.808;2024-02-21T05:25:45;96134.88;;;3.00;77.33
24160;BME280;62385;41.594;23.808;2024-02-21T05:28:10;96132.75;;;2.81;77.50
24160;BME280;62385;41.594;23.808;2024-02-21T05:30:36;96132.72;;;3.30;76.11
24160;BME280;62385;41.594;23.808;2024-02-21T05:33:05;96146.53;;;2.96;76.39
24160;BME280;62385;41.594;23.808;2024-02-21T05:35:31;96144.09;;;3.18;75.82
24160;BME280;62385;41.594;23.808;2024-02-21T05:37:56;96156.63;;;3.02;75.53
24160;BME280;62385;41.594;23.808;2024-02-21T05:40:22;96156.66;;;2.89;75.88
24160;BME280;62385;41.594;23.808;2024-02-21T05:42:48;96145.75;;;2.45;76.30
24160;BME280;62385;41.594;23.808;2024-02-21T05:45:14;96134.66;;;2.41;76.26
24160;BME280;62385;41.594;23.808;2024-02-21T05:47:41;96160.53;;;2.33;77.18
24160;BME280;62385;41.594;23.808;2024-02-21T05:50:07;96159.72;;;2.45;76.59
24160;BME280;62385;41.594;23.808;2024-02-21T05:52:33;96166.22;;;2.40;76.56
24160;BME280;62385;41.594;23.808;2024-02-21T05:54:58;96173.53;;;2.22;76.92
24160;BME280;62385;41.594;23.808;2024-02-21T05:57:24;96156.91;;;2.36;76.69
24160;BME280;62385;41.594;23.808;2024-02-21T05:59:49;96172.19;;;2.42;76.86
24160;BME280;62385;41.594;23.808;2024-02-21T06:02:15;96182.03;;;2.51;76.95
24160;BME280;62385;41.594;23.808;2024-02-21T06:04:40;96177.75;;;2.50;77.30
24160;BME280;62385;41.594;23.808;2024-02-21T06:07:07;96180.34;;;2.62;77.55
24160;BME280;62385;41.594;23.808;2024-02-21T06:09:34;96189.91;;;2.76;77.01
24160;BME280;62385;41.594;23.808;2024-02-21T06:11:59;96187.59;;;2.84;77.06
24160;BME280;62385;41.594;23.808;2024-02-21T06:14:26;96190.59;;;3.03;77.02
24160;BME280;62385;41.594;23.808;2024-02-21T06:16:51;96190.72;;;3.38;75.15
24160;BME280;62385;41.594;23.808;2024-02-21T06:19:17;96182.53;;;3.43;74.82
24160;BME280;62385;41.594;23.808;2024-02-21T06:21:42;96185.38;;;3.63;74.17
24160;BME280;62385;41.594;23.808;2024-02-21T06:24:08;96194.25;;;3.73;74.02
24160;BME280;62385;41.594;23.808;2024-02-21T06:26:33;96188.94;;;3.62;75.29
24160;BME280;62385;41.594;23.808;2024-02-21T06:28:59;96191.84;;;3.70;75.27
24160;BME280;62385;41.594;23.808;2024-02-21T06:31:25;96185.44;;;3.75;74.93
24160;BME280;62385;41.594;23.808;2024-02-21T06:33:51;96188.88;;;3.99;75.36
24160;BME280;62385;41.594;23.808;2024-02-21T06:36:16;96200.94;;;4.36;74.56
24160;BME280;62385;41.594;23.808;2024-02-21T06:38:42;96200.41;;;4.55;74.69
24160;BME280;62385;41.594;23.808;2024-02-21T06:41:15;96192.88;;;4.61;75.37
24160;BME280;62385;41.594;23.808;2024-02-21T06:43:40;96193.09;;;4.58;75.85
24160;BME280;62385;41.594;23.808;2024-02-21T06:46:06;96194.56;;;4.62;75.86
24160;BME280;62385;41.594;23.808;2024-02-21T06:48:32;96196.72;;;4.80;74.68
24160;BME280;62385;41.594;23.808;2024-02-21T06:50:57;96190.72;;;4.78;74.57
24160;BME280;62385;41.594;23.808;2024-02-21T06:53:23;96192.66;;;4.76;75.47
24160;BME280;62385;41.594;23.808;2024-02-21T06:55:48;96203.53;;;4.71;75.19
24160;BME280;62385;41.594;23.808;2024-02-21T06:58:14;96190.72;;;4.78;74.75
24160;BME280;62385;41.594;23.808;2024-02-21T07:00:42;96202.09;;;4.78;75.27
24160;BME280;62385;41.594;23.808;2024-02-21T07:03:08;96192.31;;;4.80;75.13
24160;BME280;62385;41.594;23.808;2024-02-21T07:05:33;96193.63;;;5.08;74.21
24160;BME280;62385;41.594;23.808;2024-02-21T07:07:59;96183.44;;;5.03;75.24
24160;BME280;62385;41.594;23.808;2024-02-21T07:10:24;96176.38;;;5.15;74.36
24160;BME280;62385;41.594;23.808;2024-02-21T07:12:50;96182.50;;;5.16;74.02
24160;BME280;62385;41.594;23.808;2024-02-21T07:15:17;96174.34;;;5.19;74.51
24160;BME280;62385;41.594;23.808;2024-02-21T07:17:42;96187.63;;;5.28;74.33
24160;BME280;62385;41.594;23.808;2024-02-21T07:20:08;96181.75;;;5.36;74.16
24160;BME280;62385;41.594;23.808;2024-02-21T07:22:34;96164.88;;;5.27;74.13
24160;BME280;62385;41.594;23.808;2024-02-21T07:24:59;96177.06;;;5.39;74.24
24160;BME280;62385;41.594;23.808;2024-02-21T07:27:25;96185.66;;;5.52;74.01
24160;BME280;62385;41.594;23.808;2024-02-21T07:29:54;96185.25;;;5.68;72.90
24160;BME280;62385;41.594;23.808;2024-02-21T07:32:19;96198.72;;;5.54;73.32
24160;BME280;62385;41.594;23.808;2024-02-21T07:34:45;96184.56;;;5.66;73.06
24160;BME280;62385;41.594;23.808;2024-02-21T07:37:10;96192.06;;;5.82;73.10
24160;BME280;62385;41.594;23.808;2024-02-21T07:39:36;96169.81;;;5.64;72.82
24160;BME280;62385;41.594;23.808;2024-02-21T07:42:04;96186.22;;;5.78;72.49
24160;BME280;62385;41.594;23.808;2024-02-21T07:44:31;96181.06;;;5.88;72.13
24160;BME280;62385;41.594;23.808;2024-02-21T07:46:57;96184.88;;;5.84;71.01
24160;BME280;62385;41.594;23.808;2024-02-21T07:49:23;96184.31;;;5.69;71.44
24160;BME280;62385;41.594;23.808;2024-02-21T07:51:49;96186.34;;;5.88;71.03
24160;BME280;62385;41.594;23.808;2024-02-21T07:54:14;96188.69;;;5.80;70.73
24160;BME280;62385;41.594;23.808;2024-02-21T07:56:40;96184.13;;;5.93;70.25
24160;BME280;62385;41.594;23.808;2024-02-21T07:59:05;96177.63;;;6.08;70.18
24160;BME280;62385;41.594;23.808;2024-02-21T08:01:31;96159.97;;;6.40;68.53
24160;BME280;62385;41.594;23.808;2024-02-21T08:03:56;96172.75;;;6.24;69.26
24160;BME280;62385;41.594;23.808;2024-02-21T08:06:22;96177.97;;;6.56;68.47
24160;BME280;62385;41.594;23.808;2024-02-21T08:08:48;96167.63;;;6.43;68.06
24160;BME280;62385;41.594;23.808;2024-02-21T08:11:13;96151.22;;;6.40;67.77
24160;BME280;62385;41.594;23.808;2024-02-21T08:13:39;96166.72;;;6.54;67.76
24160;BME280;62385;41.594;23.808;2024-02-21T08:16:05;96163.84;;;6.67;66.56
24160;BME280;62385;41.594;23.808;2024-02-21T08:18:33;96163.19;;;6.95;67.13
24160;BME280;62385;41.594;23.808;2024-02-21T08:21:03;96164.00;;;6.44;66.48
24160;BME280;62385;41.594;23.808;2024-02-21T08:23:28;96165.31;;;6.50;66.30
24160;BME280;62385;41.594;23.808;2024-02-21T08:25:54;96155.91;;;6.87;65.63
24160;BME280;62385;41.594;23.808;2024-02-21T08:28:20;96156.84;;;7.07;65.38
24160;BME280;62385;41.594;23.808;2024-02-21T08:30:45;96131.34;;;6.87;65.46
24160;BME280;62385;41.594;23.808;2024-02-21T08:33:15;96138.78;;;7.03;64.93
24160;BME280;62385;41.594;23.808;2024-02-21T08:35:42;96137.53;;;6.76;64.99
24160;BME280;62385;41.594;23.808;2024-02-21T08:38:11;96146.84;;;7.11;64.15
24160;BME280;62385;41.594;23.808;2024-02-21T08:40:37;96126.41;;;7.13;64.47
24160;BME280;62385;41.594;23.808;2024-02-21T08:43:03;96130.13;;;7.40;64.34
24160;BME280;62385;41.594;23.808;2024-02-21T08:45:29;96136.69;;;7.75;63.65
24160;BME280;62385;41.594;23.808;2024-02-21T08:47:54;96140.78;;;7.29;63.20
24160;BME280;62385;41.594;23.808;2024-02-21T08:50:20;96137.69;;;7.83;63.61
24160;BME280;62385;41.594;23.808;2024-02-21T08:52:45;96124.78;;;7.90;63.68
24160;BME280;62385;41.594;23.808;2024-02-21T08:55:11;96136.16;;;8.00;62.95
24160;BME280;62385;41.594;23.808;2024-02-21T08:57:36;96097.63;;;7.98;60.27
24160;BME280;62385;41.594;23.808;2024-02-21T09:00:05;96117.53;;;7.92;63.69
24160;BME280;62385;41.594;23.808;2024-02-21T09:02:40;96135.63;;;8.06;61.96
24160;BME280;62385;41.594;23.808;2024-02-21T09:05:06;96128.09;;;8.21;62.49
24160;BME280;62385;41.594;23.808;2024-02-21T09:07:32;96117.66;;;8.48;61.48
24160;BME280;62385;41.594;23.808;2024-02-21T09:09:57;96118.22;;;8.32;61.54
24160;BME280;62385;41.594;23.808;2024-02-21T09:12:23;96130.34;;;8.06;61.10
24160;BME280;62385;41.594;23.808;2024-02-21T09:14:49;96119.91;;;8.33;60.27
24160;BME280;62385;41.594;23.808;2024-02-21T09:17:16;96129.22;;;8.28;59.92
24160;BME280;62385;41.594;23.808;2024-02-21T09:19:44;96130.88;;;8.48;60.11
24160;BME280;62385;41.594;23.808;2024-02-21T09:22:09;96121.63;;;8.62;59.94
24160;BME280;62385;41.594;23.808;2024-02-21T09:24:35;96129.22;;;8.47;59.59
24160;BME280;62385;41.594;23.808;2024-02-21T09:27:00;96121.63;;;8.71;59.93
24160;BME280;62385;41.594;23.808;2024-02-21T09:29:26;96083.31;;;8.66;57.90
24160;BME280;62385;41.594;23.808;2024-02-21T09:31:51;96122.38;;;8.91;56.79
24160;BME280;62385;41.594;23.808;2024-02-21T09:34:17;96131.91;;;8.84;57.10
24160;BME280;62385;41.594;23.808;2024-02-21T09:36:43;96105.09;;;8.97;58.26
24160;BME280;62385;41.594;23.808;2024-02-21T09:39:10;96131.91;;;8.84;57.75
24160;BME280;62385;41.594;23.808;2024-02-21T09:41:48;96113.00;;;9.06;56.53
24160;BME280;62385;41.594;23.808;2024-02-21T09:44:19;96102.69;;;9.03;55.64
24160;BME280;62385;41.594;23.808;2024-02-21T09:46:54;96111.94;;;9.26;55.64
24160;BME280;62385;41.594;23.808;2024-02-21T09:49:31;96119.88;;;9.26;55.04
24160;BME280;62385;41.594;23.808;2024-02-21T09:52:04;96098.97;;;9.51;55.75
24160;BME280;62385;41.594;23.808;2024-02-21T09:54:33;96110.66;;;9.48;53.25
24160;BME280;62385;41.594;23.808;2024-02-21T09:57:00;96106.47;;;9.55;54.05
24160;BME280;62385;41.594;23.808;2024-02-21T09:59:27;96102.69;;;9.76;53.00
24160;BME280;62385;41.594;23.808;2024-02-21T10:01:53;96105.44;;;9.84;53.78
24160;BME280;62385;41.594;23.808;2024-02-21T10:04:20;96092.78;;;9.95;52.86
24160;BME280;62385;41.594;23.808;2024-02-21T10:06:46;96086.19;;;10.17;52.63
24160;BME280;62385;41.594;23.808;2024-02-21T10:09:25;96087.53;;;10.03;52.54
24160;BME280;62385;41.594;23.808;2024-02-21T10:11:53;96089.09;;;9.61;51.91
24160;BME280;62385;41.594;23.808;2024-02-21T10:14:19;96085.50;;;9.97;52.19
24160;BME280;62385;41.594;23.808;2024-02-21T10:16:48;96080.41;;;10.04;53.02
24160;BME280;62385;41.594;23.808;2024-02-21T10:19:19;96068.88;;;10.13;52.15
24160;BME280;62385;41.594;23.808;2024-02-21T10:22:06;96060.81;;;9.97;51.51
24160;BME280;62385;41.594;23.808;2024-02-21T10:24:33;96051.13;;;10.31;51.19
24160;BME280;62385;41.594;23.808;2024-02-21T10:27:03;96041.59;;;10.03;52.13
24160;BME280;62385;41.594;23.808;2024-02-21T10:29:32;96039.09;;;10.19;49.71
24160;BME280;62385;41.594;23.808;2024-02-21T10:32:07;96051.88;;;10.41;48.31
24160;BME280;62385;41.594;23.808;2024-02-21T10:34:33;96045.84;;;10.13;46.75
24160;BME280;62385;41.594;23.808;2024-02-21T10:37:09;96040.00;;;10.28;47.67
24160;BME280;62385;41.594;23.808;2024-02-21T10:39:39;96028.66;;;10.17;47.88
24160;BME280;62385;41.594;23.808;2024-02-21T10:42:06;96021.75;;;10.25;49.00
24160;BME280;62385;41.594;23.808;2024-02-21T10:44:34;96028.34;;;10.21;46.63
24160;BME280;62385;41.594;23.808;2024-02-21T10:47:07;96007.31;;;10.27;47.32
24160;BME280;62385;41.594;23.808;2024-02-21T10:49:38;96003.59;;;10.38;46.56
24160;BME280;62385;41.594;23.808;2024-02-21T10:55:29;96010.56;;;10.39;47.13
24160;BME280;62385;41.594;23.808;2024-02-21T10:57:59;96000.94;;;11.05;45.80
24160;BME280;62385;41.594;23.808;2024-02-21T11:00:26;95990.16;;;11.23;45.41
24160;BME280;62385;41.594;23.808;2024-02-21T11:02:56;95979.88;;;11.20;44.34
24160;BME280;62385;41.594;23.808;2024-02-21T11:05:24;95987.03;;;11.28;45.17
24160;BME280;62385;41.594;23.808;2024-02-21T11:07:50;95986.16;;;11.11;43.83
24160;BME280;62385;41.594;23.808;2024-02-21T11:10:22;95978.16;;;11.03;44.64
24160;BME280;62385;41.594;23.808;2024-02-21T11:12:48;95979.50;;;11.15;43.17
24160;BME280;62385;41.594;23.808;2024-02-21T11:15:14;95980.00;;;11.19;43.12
24160;BME280;62385;41.594;23.808;2024-02-21T11:17:40;95977.19;;;10.70;43.43
24160;BME280;62385;41.594;23.808;2024-02-21T11:20:13;95957.13;;;11.18;44.67
24160;BME280;62385;41.594;23.808;2024-02-21T11:22:42;95961.88;;;11.06;42.28
24160;BME280;62385;41.594;23.808;2024-02-21T11:25:09;95953.97;;;11.22;43.58
24160;BME280;62385;41.594;23.808;2024-02-21T11:27:37;95961.78;;;11.48;43.16
24160;BME280;62385;41.594;23.808;2024-02-21T11:30:05;95952.81;;;11.33;41.53
24160;BME280;62385;41.594;23.808;2024-02-21T11:32:30;95952.31;;;11.29;40.39
24160;BME280;62385;41.594;23.808;2024-02-21T11:35:01;95952.00;;;11.65;41.73
24160;BME280;62385;41.594;23.808;2024-02-21T11:37:28;95943.56;;;11.85;43.60
24160;BME280;62385;41.594;23.808;2024-02-21T11:39:57;95936.88;;;11.33;43.26
24160;BME280;62385;41.594;23.808;2024-02-21T11:42:25;95942.53;;;11.70;42.56
24160;BME280;62385;41.594;23.808;2024-02-21T11:44:51;95939.03;;;11.53;44.65
24160;BME280;62385;41.594;23.808;2024-02-21T11:47:18;95935.75;;;11.84;45.17
24160;BME280;62385;41.594;23.808;2024-02-21T11:49:47;95917.59;;;12.03;44.43
24160;BME280;62385;41.594;23.808;2024-02-21T11:52:21;95908.94;;;12.10;44.13
24160;BME280;62385;41.594;23.808;2024-02-21T11:54:48;95913.06;;;12.20;44.56
24160;BME280;62385;41.594;23.808;2024-02-21T11:57:14;95932.44;;;11.74;43.28
24160;BME280;62385;41.594;23.808;2024-02-21T11:59:44;95917.78;;;11.94;43.82
24160;BME280;62385;41.594;23.808;2024-02-21T12:02:10;95920.59;;;11.68;44.32
24160;BME280;62385;41.594;23.808;2024-02-21T12:04:36;95907.84;;;11.80;43.87
24160;BME280;62385;41.594;23.808;2024-02-21T12:07:01;95903.06;;;12.22;43.46
24160;BME280;62385;41.594;23.808;2024-02-21T12:09:29;95906.69;;;12.45;45.92
24160;BME280;62385;41.594;23.808;2024-02-21T12:11:59;95898.53;;;12.39;43.42
24160;BME280;62385;41.594;23.808;2024-02-21T12:14:27;95904.09;;;12.21;43.67
24160;BME280;62385;41.594;23.808;2024-02-21T12:16:53;95877.59;;;12.36;44.38
24160;BME280;62385;41.594;23.808;2024-02-21T12:19:19;95888.50;;;11.94;42.25
24160;BME280;62385;41.594;23.808;2024-02-21T12:21:45;95880.59;;;12.33;44.01
24160;BME280;62385;41.594;23.808;2024-02-21T12:24:21;95861.06;;;12.48;43.65
24160;BME280;62385;41.594;23.808;2024-02-21T12:26:46;95878.38;;;12.44;43.65
24160;BME280;62385;41.594;23.808;2024-02-21T12:29:12;95887.53;;;12.50;43.42
24160;BME280;62385;41.594;23.808;2024-02-21T12:31:38;95883.47;;;12.93;42.77
24160;BME280;62385;41.594;23.808;2024-02-21T12:34:04;95881.34;;;12.58;42.93
24160;BME280;62385;41.594;23.808;2024-02-21T12:36:36;95877.31;;;12.92;41.33
24160;BME280;62385;41.594;23.808;2024-02-21T12:39:01;95860.78;;;12.74;42.27
24160;BME280;62385;41.594;23.808;2024-02-21T12:41:29;95870.66;;;12.88;40.78
24160;BME280;62385;41.594;23.808;2024-02-21T12:43:56;95869.09;;;13.33;40.84
24160;BME280;62385;41.594;23.808;2024-02-21T12:46:22;95865.16;;;12.90;41.65
24160;BME280;62385;41.594;23.808;2024-02-21T12:48:47;95856.75;;;12.78;40.82
24160;BME280;62385;41.594;23.808;2024-02-21T12:51:13;95869.09;;;13.02;41.34
24160;BME280;62385;41.594;23.808;2024-02-21T12:53:39;95864.59;;;12.41;42.06
24160;BME280;62385;41.594;23.808;2024-02-21T12:56:05;95858.53;;;12.55;41.49
24160;BME280;62385;41.594;23.808;2024-02-21T12:58:32;95850.94;;;12.75;41.17